Time;durP1;ratioP1;P1;durP2;ratioP2;P2;SDS_P1;SDS_P2;PMS_P1;PMS_P2;Temp;Humidity;BMP_temperature;BMP_pressure;BME280_temperature;BME280_humidity;BME280_pressure;Samples;Min_cycle;Max_cycle;Signal;HPM_P1;HPM_P2
2021/07/27 00:00:32;;;;;;;11.00;5.32;;;17.80;84.60;;;;;;5074516;28;20225;-87
2021/07/27 00:03:00;;;;;;;13.45;5.35;;;17.80;84.90;;;;;;5057392;28;20171;-87
2021/07/27 00:05:25;;;;;;;10.30;5.55;;;17.70;85.00;;;;;;5075319;28;20172;-87
2021/07/27 00:07:51;;;;;;;6.93;5.47;;;17.70;85.20;;;;;;5075231;28;20191;-87
2021/07/27 00:10:17;;;;;;;9.73;5.32;;;17.70;85.10;;;;;;5075275;28;20206;-87
2021/07/27 00:12:42;;;;;;;7.93;5.43;;;17.70;85.10;;;;;;5075305;28;20171;-88
2021/07/27 00:15:08;;;;;;;13.77;5.70;;;17.50;85.40;;;;;;5057364;28;20525;-88
2021/07/27 00:17:34;;;;;;;8.93;5.22;;;17.40;85.70;;;;;;5057454;28;20230;-88
2021/07/27 00:20:00;;;;;;;8.93;4.93;;;17.40;85.80;;;;;;5075321;28;20585;-88
2021/07/27 00:22:25;;;;;;;7.93;5.00;;;17.40;85.80;;;;;;5075224;28;20164;-88
2021/07/27 00:24:53;;;;;;;4.50;4.10;;;17.50;85.60;;;;;;5075206;28;20171;-87
2021/07/27 00:27:19;;;;;;;8.90;4.70;;;17.50;85.20;;;;;;5075131;28;20562;-87
2021/07/27 00:29:45;;;;;;;5.07;4.30;;;17.60;84.90;;;;;;5075084;28;20225;-87
2021/07/27 00:32:11;;;;;;;5.43;4.93;;;17.60;84.70;;;;;;5075042;28;20643;-88
2021/07/27 00:34:36;;;;;;;7.25;4.75;;;17.60;84.40;;;;;;5074928;28;20186;-87
2021/07/27 00:37:03;;;;;;;6.72;4.57;;;17.70;84.20;;;;;;5075129;28;20192;-87
2021/07/27 00:39:29;;;;;;;7.28;4.68;;;17.70;84.10;;;;;;5075204;28;20254;-88
2021/07/27 00:41:54;;;;;;;8.13;5.07;;;17.70;84.00;;;;;;5074856;28;20175;-87
2021/07/27 00:44:20;;;;;;;5.35;4.25;;;17.70;83.90;;;;;;5074800;28;20163;-87
2021/07/27 00:46:46;;;;;;;15.63;5.45;;;17.70;83.90;;;;;;5074978;28;20554;-87
2021/07/27 00:49:11;;;;;;;14.07;5.10;;;17.70;84.30;;;;;;5075042;28;20176;-87
2021/07/27 00:51:39;;;;;;;15.52;5.40;;;17.60;85.00;;;;;;5057093;28;20178;-86
2021/07/27 00:54:06;;;;;;;5.97;4.60;;;17.50;85.20;;;;;;5056633;28;20556;-87
2021/07/27 00:56:34;;;;;;;15.23;4.97;;;17.50;85.40;;;;;;5056489;28;20195;-86
2021/07/27 00:58:59;;;;;;;11.60;4.85;;;17.50;85.30;;;;;;5056525;28;20175;-86
2021/07/27 01:01:25;;;;;;;11.40;4.50;;;17.50;85.10;;;;;;5074369;28;20170;-86
2021/07/27 01:03:51;;;;;;;7.78;4.10;;;17.50;84.90;;;;;;5074389;28;20166;-87
2021/07/27 01:06:17;;;;;;;14.68;4.72;;;17.50;84.60;;;;;;5056732;28;20175;-87
2021/07/27 01:08:43;;;;;;;6.35;5.18;;;17.50;84.30;;;;;;5074280;28;20521;-86
2021/07/27 01:11:08;;;;;;;7.38;3.72;;;17.50;84.40;;;;;;5074010;28;20171;-86
2021/07/27 01:13:34;;;;;;;8.90;4.88;;;17.50;84.40;;;;;;5056213;28;20187;-87
2021/07/27 01:16:05;;;;;;;8.27;5.05;;;17.50;84.30;;;;;;5074154;28;20183;-87
2021/07/27 01:18:37;;;;;;;6.80;4.80;;;17.50;84.10;;;;;;5056031;28;20191;-86
2021/07/27 01:39:56;;;;;;;8.30;5.32;;;17.30;85.30;;;;;;5074191;28;20167;-86
2021/07/27 01:42:21;;;;;;;10.38;5.03;;;17.30;85.00;;;;;;5055827;28;20174;-86
2021/07/27 01:44:47;;;;;;;18.58;6.03;;;17.40;84.90;;;;;;5055690;28;20265;-86
2021/07/27 01:47:15;;;;;;;22.17;5.40;;;17.30;85.60;;;;;;5055676;28;20249;-86
2021/07/27 01:49:42;;;;;;;26.77;5.22;;;17.30;85.40;;;;;;5055680;28;20202;-86
2021/07/27 01:52:10;;;;;;;25.20;6.05;;;17.20;85.90;;;;;;5055822;28;20232;-87
2021/07/27 01:54:52;;;;;;;17.90;5.53;;;17.10;86.10;;;;;;5056431;28;20190;-86
2021/07/27 01:57:19;;;;;;;21.00;7.85;;;17.10;86.00;;;;;;5055458;28;20579;-87
2021/07/27 01:59:50;;;;;;;48.10;7.93;;;17.20;86.80;;;;;;5055507;28;20175;-87
2021/07/27 02:02:16;;;;;;;22.92;7.10;;;17.10;86.90;;;;;;5073658;28;20246;-86
2021/07/27 02:04:41;;;;;;;26.13;7.30;;;17.10;86.80;;;;;;5055547;28;20233;-87
2021/07/27 02:07:10;;;;;;;56.50;7.47;;;17.20;86.90;;;;;;5055351;28;20191;-87
2021/07/27 02:09:40;;;;;;;41.35;8.88;;;17.20;87.50;;;;;;5073332;28;20186;-86
2021/07/27 02:12:11;;;;;;;31.73;8.27;;;17.10;87.70;;;;;;5073396;28;20267;-87
2021/07/27 02:17:21;;;;;;;11.68;7.90;;;17.20;88.50;;;;;;5073556;28;20255;-87
2021/07/27 02:19:47;;;;;;;11.13;7.75;;;17.20;88.60;;;;;;5073365;28;20167;-87
2021/07/27 02:22:13;;;;;;;14.52;8.18;;;17.30;88.70;;;;;;5054592;28;20178;-86
2021/07/27 02:24:39;;;;;;;17.23;9.48;;;17.30;88.80;;;;;;5073138;28;20168;-87
2021/07/27 02:27:05;;;;;;;11.57;9.02;;;17.20;89.30;;;;;;5072937;28;20213;-87
2021/07/27 02:29:30;;;;;;;19.13;9.57;;;17.30;89.00;;;;;;5055262;28;20242;-87
2021/07/27 02:31:56;;;;;;;13.52;9.35;;;17.30;89.30;;;;;;5055109;28;20187;-87
2021/07/27 02:34:22;;;;;;;14.10;10.05;;;17.40;89.10;;;;;;5055172;28;20180;-87
2021/07/27 02:36:47;;;;;;;14.85;10.25;;;17.40;89.00;;;;;;5055225;28;20202;-87
2021/07/27 02:39:13;;;;;;;18.65;9.98;;;17.40;88.90;;;;;;5073084;28;20171;-87
2021/07/27 02:41:38;;;;;;;24.05;9.80;;;17.40;88.80;;;;;;5055100;28;20635;-87
2021/07/27 02:44:04;;;;;;;15.77;10.15;;;17.50;88.80;;;;;;5055072;28;20313;-87
2021/07/27 02:46:30;;;;;;;22.17;10.80;;;17.40;89.00;;;;;;5072960;28;20564;-87
2021/07/27 02:48:55;;;;;;;20.00;10.63;;;17.30;89.10;;;;;;5072930;28;20178;-87
2021/07/27 02:51:21;;;;;;;24.65;11.95;;;17.30;89.20;;;;;;5055045;28;20236;-87
2021/07/27 02:53:47;;;;;;;28.25;12.15;;;17.40;89.50;;;;;;5072926;28;20172;-87
2021/07/27 02:56:13;;;;;;;22.05;13.18;;;17.30;89.30;;;;;;5072812;28;20705;-87
2021/07/27 02:58:39;;;;;;;20.98;13.85;;;17.20;89.50;;;;;;5054884;28;20215;-87
2021/07/27 03:01:05;;;;;;;20.65;12.52;;;17.40;89.60;;;;;;5054852;28;20215;-87
2021/07/27 03:03:31;;;;;;;31.40;15.23;;;17.50;89.60;;;;;;5072803;28;20172;-87
2021/07/27 03:06:00;;;;;;;19.85;13.80;;;17.50;89.70;;;;;;5072763;28;20241;-86
2021/07/27 03:11:11;;;;;;;19.73;13.98;;;17.60;90.00;;;;;;5073149;28;20162;-86
2021/07/27 03:13:36;;;;;;;18.52;14.40;;;17.80;89.40;;;;;;5054693;28;20179;-86
2021/07/27 03:16:02;;;;;;;25.50;13.88;;;17.90;89.10;;;;;;5054822;28;20596;-86
2021/07/27 03:18:28;;;;;;;16.88;13.90;;;17.90;88.90;;;;;;5054432;28;20729;-86
2021/07/27 03:20:53;;;;;;;18.08;12.65;;;18.00;89.00;;;;;;5054704;28;20575;-86
2021/07/27 03:23:27;;;;;;;16.17;12.75;;;18.00;88.80;;;;;;5072631;28;20179;-86
2021/07/27 03:25:53;;;;;;;14.13;11.45;;;18.00;88.50;;;;;;5072735;28;20179;-86
2021/07/27 03:28:19;;;;;;;13.73;11.27;;;18.00;88.30;;;;;;5054488;28;20211;-86
2021/07/27 03:30:44;;;;;;;18.20;12.07;;;18.10;88.00;;;;;;5054572;28;20320;-86
2021/07/27 03:33:16;;;;;;;16.70;11.43;;;18.10;87.70;;;;;;5054609;28;20188;-86
2021/07/27 03:35:42;;;;;;;14.00;12.45;;;18.10;87.30;;;;;;5076193;28;20172;-87
2021/07/27 03:38:08;;;;;;;13.73;12.15;;;18.10;87.60;;;;;;5058025;28;20229;-86
2021/07/27 03:40:37;;;;;;;14.93;12.75;;;18.10;87.50;;;;;;5076025;28;20682;-87
2021/07/27 03:43:02;;;;;;;15.63;12.70;;;18.10;87.80;;;;;;5075961;28;20167;-87
2021/07/27 03:45:28;;;;;;;15.77;12.68;;;18.10;87.90;;;;;;5057969;28;20616;-87
2021/07/27 03:47:54;;;;;;;17.75;14.05;;;18.10;87.90;;;;;;5076408;28;20206;-86
2021/07/27 03:50:19;;;;;;;20.55;13.85;;;18.20;87.80;;;;;;5075923;28;20176;-86
2021/07/27 03:52:45;;;;;;;15.77;14.00;;;18.20;88.00;;;;;;5076157;28;20182;-86
2021/07/27 03:55:11;;;;;;;17.90;14.98;;;18.20;88.50;;;;;;5075725;28;20172;-87
2021/07/27 03:57:36;;;;;;;15.20;13.52;;;18.20;88.50;;;;;;5075481;28;20245;-87
2021/07/27 04:00:04;;;;;;;15.70;14.10;;;18.20;88.50;;;;;;5075711;28;20168;-86
2021/07/27 04:02:29;;;;;;;16.48;14.50;;;18.20;88.50;;;;;;5075590;28;20167;-87
2021/07/27 04:04:55;;;;;;;18.65;15.05;;;18.20;88.00;;;;;;5075621;28;20171;-87
2021/07/27 04:07:20;;;;;;;16.63;14.95;;;18.20;88.00;;;;;;5075441;28;20187;-86
2021/07/27 04:09:46;;;;;;;19.98;14.80;;;18.30;87.90;;;;;;5057546;28;20216;-87
2021/07/27 04:12:12;;;;;;;18.52;15.00;;;18.30;87.70;;;;;;5075451;28;20176;-87
2021/07/27 04:14:37;;;;;;;20.45;14.75;;;18.20;87.30;;;;;;5057452;28;20183;-86
2021/07/27 04:17:03;;;;;;;20.23;15.48;;;18.30;87.20;;;;;;5057178;28;20357;-87
2021/07/27 04:19:29;;;;;;;20.55;15.95;;;18.30;87.40;;;;;;5057378;28;20181;-86
2021/07/27 04:21:55;;;;;;;19.05;16.77;;;18.30;87.40;;;;;;5057315;28;20266;-86
2021/07/27 04:24:20;;;;;;;23.52;15.85;;;18.20;87.50;;;;;;5057201;28;20172;-86
2021/07/27 04:26:49;;;;;;;19.60;17.00;;;18.20;87.60;;;;;;5057057;28;20214;-86
2021/07/27 04:29:17;;;;;;;20.90;15.90;;;18.30;87.40;;;;;;5057210;28;20176;-86
2021/07/27 04:31:42;;;;;;;20.33;15.48;;;18.30;86.90;;;;;;5075169;28;20168;-86
2021/07/27 04:34:08;;;;;;;20.13;15.40;;;18.30;87.10;;;;;;5057037;28;20182;-86
2021/07/27 04:36:33;;;;;;;18.02;15.07;;;18.40;86.80;;;;;;5056933;28;20241;-87
2021/07/27 04:38:59;;;;;;;17.35;14.15;;;18.40;86.50;;;;;;5057278;28;20195;-86
2021/07/27 04:41:25;;;;;;;22.52;14.55;;;18.40;86.30;;;;;;5056906;28;20240;-86
2021/07/27 04:43:50;;;;;;;22.02;16.45;;;18.50;86.50;;;;;;5056949;28;20171;-86
2021/07/27 04:46:16;;;;;;;21.80;16.92;;;18.50;86.30;;;;;;5074336;28;20171;-86
2021/07/27 04:48:42;;;;;;;23.95;15.52;;;18.60;86.30;;;;;;5056895;28;20179;-86
2021/07/27 04:51:07;;;;;;;20.17;16.00;;;18.70;86.30;;;;;;5074635;28;20593;-86
2021/07/27 04:53:36;;;;;;;17.75;15.35;;;18.70;86.10;;;;;;5056723;28;20203;-86
2021/07/27 04:56:03;;;;;;;20.55;16.88;;;18.70;86.30;;;;;;5056641;28;20240;-87
2021/07/27 04:58:28;;;;;;;23.42;16.92;;;18.70;85.90;;;;;;5074727;28;20234;-86
2021/07/27 05:01:04;;;;;;;21.83;16.50;;;18.70;85.80;;;;;;5074426;28;20175;-87
2021/07/27 05:03:31;;;;;;;18.55;16.40;;;18.70;85.80;;;;;;5056971;28;20233;-86
2021/07/27 05:05:57;;;;;;;23.65;18.83;;;18.70;86.20;;;;;;5056491;28;20172;-86
2021/07/27 05:08:23;;;;;;;22.63;18.15;;;18.70;86.00;;;;;;5074165;28;20201;-86
2021/07/27 05:10:48;;;;;;;20.35;17.15;;;18.70;86.40;;;;;;5074274;28;20254;-86
2021/07/27 05:13:14;;;;;;;22.63;18.67;;;18.80;86.40;;;;;;5074443;28;20175;-86
2021/07/27 05:15:40;;;;;;;25.05;18.33;;;18.70;86.30;;;;;;5074163;28;20168;-86
2021/07/27 05:18:05;;;;;;;22.63;18.40;;;18.70;86.20;;;;;;5056091;28;20200;-86
2021/07/27 05:20:31;;;;;;;23.33;17.55;;;18.70;86.30;;;;;;5056494;28;20221;-86
2021/07/27 05:22:57;;;;;;;20.63;16.77;;;18.60;86.30;;;;;;5056196;28;20225;-86
2021/07/27 05:25:23;;;;;;;20.10;17.90;;;18.50;86.20;;;;;;5056074;28;20180;-86
2021/07/27 05:27:49;;;;;;;20.00;17.48;;;18.50;86.40;;;;;;5073782;28;20741;-86
2021/07/27 05:30:16;;;;;;;22.27;18.75;;;18.50;86.70;;;;;;5073838;28;20220;-86
2021/07/27 05:32:42;;;;;;;21.58;17.85;;;18.40;86.70;;;;;;5055920;28;20171;-87
2021/07/27 05:35:10;;;;;;;27.40;19.13;;;18.40;86.80;;;;;;5073713;28;20182;-86
2021/07/27 05:37:35;;;;;;;23.20;19.17;;;18.40;87.00;;;;;;5073616;28;20336;-86
2021/07/27 05:40:05;;;;;;;29.02;21.90;;;18.40;86.90;;;;;;5055846;28;20622;-86
2021/07/27 05:42:30;;;;;;;26.35;20.15;;;18.40;87.00;;;;;;5055844;28;20175;-87
2021/07/27 05:44:56;;;;;;;26.02;20.27;;;18.40;87.20;;;;;;5055744;28;20171;-87
2021/07/27 05:47:22;;;;;;;24.30;20.10;;;18.50;87.10;;;;;;5055703;28;20242;-87
2021/07/27 05:49:47;;;;;;;29.08;21.13;;;18.50;87.10;;;;;;5055682;28;20175;-86
2021/07/27 05:52:13;;;;;;;22.80;19.38;;;18.50;87.30;;;;;;5073617;28;20180;-86
2021/07/27 05:54:39;;;;;;;22.42;19.92;;;18.60;87.00;;;;;;5055717;28;20171;-86
2021/07/27 05:57:13;;;;;;;24.45;20.45;;;18.70;86.80;;;;;;5072593;28;20198;-86
2021/07/27 05:59:40;;;;;;;24.77;21.25;;;18.70;86.60;;;;;;5073423;28;20250;-86
2021/07/27 06:02:06;;;;;;;26.45;21.85;;;18.80;85.90;;;;;;5055582;28;20256;-86
2021/07/27 06:04:31;;;;;;;29.15;21.85;;;18.80;85.60;;;;;;5055522;28;20727;-86
2021/07/27 06:06:57;;;;;;;26.48;21.92;;;18.90;85.60;;;;;;5073363;28;20191;-86
2021/07/27 06:09:22;;;;;;;31.70;22.95;;;19.00;85.90;;;;;;5055437;28;20169;-86
2021/07/27 06:11:48;;;;;;;29.83;24.15;;;19.00;85.40;;;;;;5073302;28;20180;-86
2021/07/27 06:14:14;;;;;;;32.22;25.48;;;19.10;85.60;;;;;;5073641;28;20593;-86
2021/07/27 06:16:40;;;;;;;34.75;25.58;;;19.20;85.40;;;;;;5055315;28;20222;-86
2021/07/27 06:19:07;;;;;;;35.40;26.50;;;19.20;85.10;;;;;;5073109;28;20199;-87
2021/07/27 06:21:33;;;;;;;33.28;25.35;;;19.20;85.00;;;;;;5073175;28;20209;-86
2021/07/27 06:23:59;;;;;;;33.58;25.95;;;19.20;85.70;;;;;;5073315;28;20164;-86
2021/07/27 06:26:25;;;;;;;41.08;26.95;;;19.30;85.00;;;;;;5055053;28;20210;-87
2021/07/27 06:28:50;;;;;;;37.58;27.45;;;19.30;84.50;;;;;;5055259;28;20164;-86
2021/07/27 06:31:16;;;;;;;32.30;25.40;;;19.40;85.10;;;;;;5073165;28;20650;-87
2021/07/27 06:33:44;;;;;;;32.65;25.33;;;19.50;84.40;;;;;;5073123;28;20242;-86
2021/07/27 06:36:11;;;;;;;34.10;22.77;;;19.70;85.00;;;;;;5073000;28;20167;-85
2021/07/27 06:38:37;;;;;;;26.33;20.85;;;19.80;83.50;;;;;;5072967;28;20607;-86
2021/07/27 06:41:07;;;;;;;29.35;20.48;;;19.90;83.30;;;;;;5055338;28;20587;-86
2021/07/27 06:43:33;;;;;;;26.90;19.10;;;19.90;83.20;;;;;;5055442;28;20263;-86
2021/07/27 06:45:59;;;;;;;22.20;19.23;;;20.00;82.40;;;;;;5055066;28;20202;-86
2021/07/27 06:48:25;;;;;;;26.55;20.42;;;20.10;82.90;;;;;;5072805;28;20709;-86
2021/07/27 06:50:51;;;;;;;26.65;19.70;;;20.00;82.40;;;;;;5072921;28;20250;-86
2021/07/27 06:53:18;;;;;;;22.50;19.10;;;20.10;82.30;;;;;;5054900;28;20186;-86
2021/07/27 06:55:44;;;;;;;25.08;20.15;;;20.10;82.50;;;;;;5054894;28;20187;-86
2021/07/27 06:58:09;;;;;;;26.52;19.48;;;20.10;82.30;;;;;;5073098;28;20248;-86
2021/07/27 07:00:39;;;;;;;24.80;20.45;;;20.10;82.40;;;;;;5073293;28;20172;-86
2021/07/27 07:03:07;;;;;;;24.70;19.02;;;20.10;82.80;;;;;;5055119;28;20274;-86
2021/07/27 07:05:34;;;;;;;24.83;18.40;;;20.10;82.90;;;;;;5054993;28;20242;-86
2021/07/27 07:08:00;;;;;;;26.40;20.17;;;20.20;81.80;;;;;;5055265;28;20208;-86
2021/07/27 07:10:26;;;;;;;32.15;21.20;;;20.10;82.30;;;;;;5076498;28;20175;-86
2021/07/27 07:12:52;;;;;;;25.60;21.05;;;20.10;81.90;;;;;;5076790;28;20639;-86
2021/07/27 07:15:18;;;;;;;27.00;20.98;;;20.20;82.20;;;;;;5077377;28;20171;-86
2021/07/27 07:17:43;;;;;;;26.02;20.42;;;20.30;82.40;;;;;;5076311;28;20206;-85
2021/07/27 07:20:09;;;;;;;28.38;19.90;;;20.30;81.60;;;;;;5058817;28;20195;-86
2021/07/27 07:22:35;;;;;;;23.77;20.85;;;20.50;82.10;;;;;;5058429;28;20290;-85
2021/07/27 07:25:02;;;;;;;28.02;21.10;;;20.40;80.80;;;;;;5076480;28;20627;-86
2021/07/27 07:27:28;;;;;;;25.02;21.00;;;20.60;81.20;;;;;;5058199;28;20701;-86
2021/07/27 07:29:54;;;;;;;25.75;20.77;;;20.70;81.50;;;;;;5059127;28;20175;-86
2021/07/27 07:32:21;;;;;;;24.58;19.88;;;20.80;81.00;;;;;;5058208;28;20180;-86
2021/07/27 07:34:46;;;;;;;23.35;21.00;;;20.90;80.60;;;;;;5058222;28;20176;-86
2021/07/27 07:37:12;;;;;;;22.85;19.73;;;20.70;79.90;;;;;;5058074;28;20207;-85
2021/07/27 07:39:38;;;;;;;25.52;21.52;;;20.70;80.50;;;;;;5058101;28;20704;-86
2021/07/27 07:42:05;;;;;;;25.42;22.70;;;20.70;80.60;;;;;;5058219;28;20210;-86
2021/07/27 07:44:31;;;;;;;30.30;25.17;;;20.70;80.80;;;;;;5058039;28;20171;-86
2021/07/27 07:46:56;;;;;;;27.35;24.67;;;20.50;79.10;;;;;;5058063;28;20265;-86
2021/07/27 07:49:22;;;;;;;25.98;23.38;;;20.30;79.70;;;;;;5057957;28;20643;-86
2021/07/27 07:51:50;;;;;;;25.30;22.63;;;20.40;79.90;;;;;;5057970;28;20187;-86
2021/07/27 07:54:16;;;;;;;25.42;22.83;;;20.70;80.20;;;;;;5057800;28;20547;-86
2021/07/27 07:56:42;;;;;;;30.60;23.85;;;20.70;79.20;;;;;;5057665;28;20191;-86
2021/07/27 07:59:08;;;;;;;21.00;18.70;;;21.00;79.40;;;;;;5057879;28;20245;-86
2021/07/27 08:01:33;;;;;;;22.60;20.17;;;21.20;77.30;;;;;;5057687;28;20172;-87
2021/07/27 08:03:59;;;;;;;22.52;19.65;;;21.10;77.90;;;;;;5057999;28;20168;-85
2021/07/27 08:06:25;;;;;;;23.48;20.98;;;20.80;77.40;;;;;;5076040;28;20187;-85
2021/07/27 08:08:51;;;;;;;23.17;20.60;;;20.70;78.00;;;;;;5076367;28;20203;-85
2021/07/27 08:11:17;;;;;;;24.10;19.77;;;20.50;79.00;;;;;;5057812;28;20651;-85
2021/07/27 08:13:43;;;;;;;22.08;19.38;;;20.50;78.60;;;;;;5058226;28;20171;-86
2021/07/27 08:16:09;;;;;;;27.75;20.75;;;20.60;79.20;;;;;;5075570;28;20543;-86
2021/07/27 08:18:35;;;;;;;24.33;20.58;;;20.50;78.90;;;;;;5079773;28;20252;-85
2021/07/27 08:21:01;;;;;;;24.17;20.83;;;20.70;79.30;;;;;;5059975;28;20684;-87
2021/07/27 08:23:26;;;;;;;27.85;20.33;;;20.80;78.90;;;;;;5060801;28;20171;-86
2021/07/27 08:25:52;;;;;;;22.35;19.38;;;20.90;77.90;;;;;;5060927;28;20171;-86
2021/07/27 08:28:17;;;;;;;22.08;19.63;;;20.90;78.00;;;;;;5076434;28;20697;-86
2021/07/27 08:30:43;;;;;;;24.40;20.38;;;21.10;78.60;;;;;;5076065;28;20167;-87
2021/07/27 08:33:09;;;;;;;21.90;19.50;;;21.20;77.80;;;;;;5076766;28;20246;-87
2021/07/27 08:35:34;;;;;;;25.52;19.88;;;21.10;77.90;;;;;;5075353;28;20553;-85
2021/07/27 08:38:00;;;;;;;19.30;17.25;;;21.00;78.40;;;;;;5075819;28;20192;-87
2021/07/27 08:40:28;;;;;;;21.00;17.40;;;21.10;77.10;;;;;;5059044;28;20635;-85
2021/07/27 08:42:56;;;;;;;26.10;18.63;;;21.20;77.80;;;;;;5075429;28;20163;-85
2021/07/27 08:45:22;;;;;;;21.15;17.00;;;21.30;77.20;;;;;;5057137;28;20175;-86
2021/07/27 08:47:49;;;;;;;18.10;15.65;;;21.50;77.00;;;;;;5075148;28;20207;-86
2021/07/27 08:50:16;;;;;;;17.83;14.77;;;21.40;76.50;;;;;;5074742;28;20714;-86
2021/07/27 08:52:42;;;;;;;17.30;14.02;;;21.60;75.20;;;;;;5056732;28;20550;-85
2021/07/27 08:55:08;;;;;;;16.35;14.65;;;21.70;75.80;;;;;;5056654;28;20186;-85
2021/07/27 08:57:35;;;;;;;18.38;15.23;;;21.60;74.80;;;;;;5056481;28;20214;-85
2021/07/27 09:00:01;;;;;;;18.60;16.15;;;21.50;75.20;;;;;;5056654;28;20665;-86
2021/07/27 09:02:28;;;;;;;21.02;16.30;;;21.60;75.50;;;;;;5056680;28;20181;-86
2021/07/27 09:05:11;;;;;;;21.35;16.08;;;21.70;75.70;;;;;;5056543;28;20175;-85
2021/07/27 09:07:37;;;;;;;21.80;15.27;;;21.70;74.00;;;;;;5056548;28;20249;-86
2021/07/27 09:10:14;;;;;;;18.30;15.25;;;21.80;73.80;;;;;;5056471;28;20274;-85
2021/07/27 09:12:56;;;;;;;18.77;16.00;;;21.90;74.60;;;;;;5074278;28;20199;-86
2021/07/27 09:15:27;;;;;;;23.83;17.50;;;22.00;74.70;;;;;;5056319;28;20170;-85
2021/07/27 09:17:57;;;;;;;18.27;16.27;;;22.00;74.70;;;;;;5056129;28;20694;-84
2021/07/27 09:20:30;;;;;;;21.15;17.77;;;22.20;74.00;;;;;;5056426;28;20175;-83
2021/07/27 09:22:55;;;;;;;22.15;18.67;;;22.10;73.30;;;;;;5074374;28;20262;-85
2021/07/27 09:25:27;;;;;;;24.27;21.20;;;21.90;74.70;;;;;;5074002;28;20194;-84
2021/07/27 09:28:19;;;;;;;22.98;20.70;;;21.70;75.70;;;;;;5073714;28;20215;-84
2021/07/27 09:30:46;;;;;;;24.08;21.35;;;21.20;78.40;;;;;;5071446;28;20230;-84
2021/07/27 09:33:15;;;;;;;27.70;22.13;;;21.10;78.30;;;;;;5074299;28;20210;-84
2021/07/27 09:35:42;;;;;;;25.05;21.98;;;20.90;78.70;;;;;;5074463;28;20167;-84
2021/07/27 09:38:12;;;;;;;21.95;18.73;;;21.10;79.90;;;;;;5056076;28;20211;-85
2021/07/27 09:41:00;;;;;;;20.92;18.70;;;21.10;78.80;;;;;;5074026;28;20178;-84
2021/07/27 09:43:27;;;;;;;24.23;19.55;;;21.30;78.90;;;;;;5055810;28;20221;-84
2021/07/27 09:45:55;;;;;;;21.13;17.77;;;21.70;76.70;;;;;;5055866;28;20306;-84
2021/07/27 09:48:22;;;;;;;19.98;17.85;;;21.80;76.00;;;;;;5055698;28;20332;-84
2021/07/27 09:50:52;;;;;;;19.38;16.65;;;22.40;76.30;;;;;;5056131;28;20182;-84
2021/07/27 09:53:19;;;;;;;20.25;17.08;;;22.70;73.00;;;;;;5074130;28;20163;-84
2021/07/27 09:55:45;;;;;;;18.25;16.05;;;22.40;72.80;;;;;;5073687;28;20179;-84
2021/07/27 09:58:12;;;;;;;22.95;16.02;;;22.20;73.30;;;;;;5055456;28;20698;-84
2021/07/27 10:01:05;;;;;;;17.35;15.52;;;22.00;73.70;;;;;;5073415;28;20179;-84
2021/07/27 10:03:46;;;;;;;22.38;15.40;;;21.70;75.20;;;;;;5055842;28;20233;-84
2021/07/27 10:06:29;;;;;;;17.60;14.38;;;21.70;76.00;;;;;;5073381;28;20156;-84
2021/07/27 10:09:00;;;;;;;14.10;10.82;;;21.70;75.90;;;;;;5055548;28;20554;-84
2021/07/27 10:11:39;;;;;;;13.80;11.98;;;21.90;74.40;;;;;;5055513;28;20176;-84
2021/07/27 10:14:13;;;;;;;15.70;13.00;;;22.10;75.10;;;;;;5055771;28;20720;-84
2021/07/27 10:16:39;;;;;;;15.35;13.27;;;22.10;74.20;;;;;;5073238;28;20195;-84
2021/07/27 10:19:19;;;;;;;13.68;12.13;;;22.40;73.40;;;;;;5055255;28;20199;-84
2021/07/27 10:21:46;;;;;;;13.50;11.65;;;22.40;72.10;;;;;;5055368;28;20175;-84
2021/07/27 10:24:25;;;;;;;16.65;12.88;;;22.30;72.00;;;;;;5073206;28;20175;-85
2021/07/27 10:26:51;;;;;;;17.05;14.25;;;22.40;71.60;;;;;;5055098;28;20207;-84
2021/07/27 10:29:31;;;;;;;14.55;12.43;;;22.70;71.60;;;;;;5073140;28;20174;-84
2021/07/27 10:31:59;;;;;;;15.27;13.27;;;22.90;72.50;;;;;;5073126;28;20186;-84
2021/07/27 10:34:32;;;;;;;15.57;13.63;;;23.10;70.90;;;;;;5073946;28;20171;-84
2021/07/27 10:37:06;;;;;;;15.15;13.55;;;23.00;70.20;;;;;;5073009;28;20278;-84
2021/07/27 10:39:32;;;;;;;14.85;12.25;;;22.90;70.10;;;;;;5055699;28;20255;-84
2021/07/27 10:42:07;;;;;;;13.77;12.10;;;22.80;70.40;;;;;;5073037;28;20195;-84
2021/07/27 10:44:39;;;;;;;17.65;12.48;;;23.00;69.90;;;;;;5057275;28;20163;-84
2021/07/27 10:47:05;;;;;;;17.50;13.45;;;23.10;70.50;;;;;;5077331;28;20198;-84
2021/07/27 10:49:31;;;;;;;16.13;14.40;;;23.10;70.50;;;;;;5059172;28;20599;-84
2021/07/27 10:52:02;;;;;;;17.40;14.43;;;22.70;70.00;;;;;;5059705;28;20658;-84
2021/07/27 10:54:30;;;;;;;16.60;14.80;;;22.40;72.20;;;;;;5076976;28;20262;-83
2021/07/27 10:57:02;;;;;;;26.33;14.75;;;22.20;71.50;;;;;;5059066;28;20293;-83
2021/07/27 10:59:32;;;;;;;18.05;14.25;;;22.20;72.60;;;;;;5059112;28;20191;-85
2021/07/27 11:02:01;;;;;;;21.50;16.45;;;22.00;73.30;;;;;;5078881;28;20175;-85
2021/07/27 11:04:31;;;;;;;18.27;15.68;;;21.80;75.50;;;;;;5060550;28;20171;-85
2021/07/27 11:07:10;;;;;;;17.25;15.02;;;21.50;75.00;;;;;;5076935;28;20262;-86
2021/07/27 11:09:52;;;;;;;18.63;15.20;;;21.50;74.60;;;;;;5076833;28;20258;-85
2021/07/27 11:12:26;;;;;;;20.98;16.10;;;21.80;74.50;;;;;;5058791;28;20178;-85
2021/07/27 11:15:03;;;;;;;20.88;15.70;;;21.70;73.90;;;;;;5058941;28;20175;-86
2021/07/27 11:17:29;;;;;;;19.80;15.10;;;21.90;75.00;;;;;;5059794;28;20245;-85
2021/07/27 11:19:56;;;;;;;22.30;15.32;;;22.30;74.30;;;;;;5059484;28;20318;-85
2021/07/27 11:22:22;;;;;;;15.65;11.75;;;22.60;73.50;;;;;;5076444;28;20183;-85
2021/07/27 11:24:48;;;;;;;16.92;12.45;;;22.70;72.90;;;;;;5058942;28;20549;-85
2021/07/27 11:27:15;;;;;;;19.70;13.63;;;22.60;71.90;;;;;;5076619;28;20631;-85
2021/07/27 11:29:41;;;;;;;16.67;13.45;;;22.50;72.30;;;;;;5076773;28;20170;-85
2021/07/27 11:32:13;;;;;;;30.45;14.48;;;22.90;71.90;;;;;;5058753;28;20171;-85
2021/07/27 11:34:39;;;;;;;20.48;13.77;;;23.30;71.50;;;;;;5058346;28;20176;-86
2021/07/27 11:37:04;;;;;;;24.27;14.10;;;23.70;70.70;;;;;;5058180;28;20543;-86
2021/07/27 11:39:40;;;;;;;15.90;11.63;;;23.00;69.30;;;;;;5058260;28;20262;-86
2021/07/27 11:42:05;;;;;;;14.23;11.10;;;22.70;69.60;;;;;;5076036;28;20172;-87
2021/07/27 11:44:31;;;;;;;12.23;9.82;;;22.60;70.90;;;;;;5076094;28;20579;-87
2021/07/27 11:46:57;;;;;;;20.10;16.25;;;22.70;69.90;;;;;;5058051;28;20217;-86
2021/07/27 11:49:23;;;;;;;23.23;16.65;;;22.50;72.00;;;;;;5057991;28;20197;-86
2021/07/27 11:52:00;;;;;;;32.05;22.55;;;21.80;75.10;;;;;;5058763;28;20542;-87
2021/07/27 11:54:26;;;;;;;35.42;21.95;;;21.20;79.30;;;;;;5057946;28;20173;-88
2021/07/27 11:56:52;;;;;;;31.77;22.92;;;20.80;80.70;;;;;;5057878;28;20286;-87
2021/07/27 11:59:28;;;;;;;33.17;25.00;;;20.70;81.90;;;;;;5057730;28;20203;-86
2021/07/27 12:01:55;;;;;;;35.78;26.13;;;20.70;83.10;;;;;;5076399;28;20156;-86
2021/07/27 12:04:21;;;;;;;33.53;26.98;;;20.80;83.80;;;;;;5057822;28;20171;-86
2021/07/27 12:06:55;;;;;;;34.83;27.67;;;21.10;84.20;;;;;;5075714;28;20739;-85
2021/07/27 12:09:22;;;;;;;35.08;26.95;;;21.10;84.10;;;;;;5075911;28;20621;-86
2021/07/27 12:11:49;;;;;;;31.00;25.52;;;21.20;83.90;;;;;;5075704;28;20205;-86
2021/07/27 12:14:15;;;;;;;34.10;24.98;;;21.30;84.20;;;;;;5057273;28;20179;-85
2021/07/27 12:16:40;;;;;;;32.40;25.85;;;21.40;83.50;;;;;;5057626;28;20203;-85
2021/07/27 12:19:06;;;;;;;33.53;26.20;;;21.70;83.80;;;;;;5057555;28;20210;-85
2021/07/27 12:21:32;;;;;;;34.70;26.73;;;22.00;83.40;;;;;;5075588;28;20171;-86
2021/07/27 12:23:57;;;;;;;30.92;24.98;;;22.20;83.40;;;;;;5057989;28;20186;-86
2021/07/27 12:26:23;;;;;;;29.38;24.77;;;22.50;82.00;;;;;;5057594;28;20176;-86
2021/07/27 12:28:48;;;;;;;30.83;25.38;;;22.70;80.20;;;;;;5075580;28;20176;-86
2021/07/27 12:31:14;;;;;;;32.10;25.42;;;22.20;78.30;;;;;;5075682;28;20172;-86
2021/07/27 12:33:40;;;;;;;27.25;23.90;;;22.20;79.10;;;;;;5057193;28;20265;-86
2021/07/27 12:36:06;;;;;;;32.63;24.05;;;22.10;77.70;;;;;;5057364;28;20225;-86
2021/07/27 12:38:33;;;;;;;29.17;24.60;;;22.00;79.60;;;;;;5057327;28;20198;-86
2021/07/27 12:40:59;;;;;;;31.30;23.92;;;22.00;79.80;;;;;;5075342;28;20167;-86
2021/07/27 12:43:25;;;;;;;26.58;23.77;;;22.30;78.80;;;;;;5057254;28;20183;-86
2021/07/27 12:45:50;;;;;;;32.38;23.80;;;22.50;79.00;;;;;;5075447;28;20554;-86
2021/07/27 12:48:16;;;;;;;33.88;22.98;;;22.40;76.30;;;;;;5075531;28;20278;-86
2021/07/27 12:50:42;;;;;;;31.02;24.23;;;22.30;76.90;;;;;;5057206;28;20201;-85
2021/07/27 12:53:08;;;;;;;32.95;22.95;;;22.50;77.80;;;;;;5057019;28;20178;-86
2021/07/27 12:55:34;;;;;;;26.95;22.98;;;22.70;78.70;;;;;;5056945;28;20176;-86